Terminal Aerodrome Forecast
Issued by NWS

Home | Current Version | Previous Version | Text Only | Print | Product List | Glossary On
Versions: 1 2 3 4 5 6 7 8 9 10 11 12 13 14 15 16
000
FTUS44 KLZK 251100
TAFLLQ
TAF
KLLQ 251121Z 2512/2612 22005KT P6SM SCT250
     FM251400 26010G18KT P6SM SCT100 BKN250
     FM260000 27008KT P6SM SCT100
     FM260900 VRB06KT P6SM SKC=

USA.gov is the U.S. government's official web portal to all federal, state and local government web resources and services.